sensor_id;sensor_type;location;lat;lon;timestamp;P1;durP1;ratioP1;P2;durP2;ratioP2
61477;SDS011;47345;52.334;10.392;2023-04-06T00:01:55;6.00;;;4.10;;
61477;SDS011;47345;52.334;10.392;2023-04-06T00:04:27;4.40;;;3.50;;
61477;SDS011;47345;52.334;10.392;2023-04-06T00:06:58;7.20;;;3.70;;
61477;SDS011;47345;52.334;10.392;2023-04-06T00:09:30;4.70;;;3.80;;
61477;SDS011;47345;52.334;10.392;2023-04-06T00:12:02;6.20;;;3.90;;
61477;SDS011;47345;52.334;10.392;2023-04-06T00:14:34;4.30;;;3.40;;
61477;SDS011;47345;52.334;10.392;2023-04-06T00:17:07;4.70;;;3.50;;
61477;SDS011;47345;52.334;10.392;2023-04-06T00:19:38;3.80;;;3.10;;
61477;SDS011;47345;52.334;10.392;2023-04-06T00:22:10;3.50;;;2.90;;
61477;SDS011;47345;52.334;10.392;2023-04-06T00:24:42;3.80;;;2.90;;
61477;SDS011;47345;52.334;10.392;2023-04-06T00:27:14;4.00;;;3.30;;
61477;SDS011;47345;52.334;10.392;2023-04-06T00:29:45;3.40;;;3.00;;
61477;SDS011;47345;52.334;10.392;2023-04-06T00:32:17;3.80;;;2.80;;
61477;SDS011;47345;52.334;10.392;2023-04-06T00:34:49;3.30;;;2.80;;
61477;SDS011;47345;52.334;10.392;2023-04-06T00:37:20;3.40;;;3.00;;
61477;SDS011;47345;52.334;10.392;2023-04-06T00:39:52;5.30;;;3.30;;
61477;SDS011;47345;52.334;10.392;2023-04-06T00:42:23;4.00;;;3.20;;
61477;SDS011;47345;52.334;10.392;2023-04-06T00:44:54;11.50;;;3.30;;
61477;SDS011;47345;52.334;10.392;2023-04-06T00:47:27;4.30;;;3.20;;
61477;SDS011;47345;52.334;10.392;2023-04-06T00:49:58;3.50;;;3.00;;
61477;SDS011;47345;52.334;10.392;2023-04-06T00:52:29;3.30;;;2.70;;
61477;SDS011;47345;52.334;10.392;2023-04-06T00:55:01;3.70;;;3.20;;
61477;SDS011;47345;52.334;10.392;2023-04-06T00:57:32;5.00;;;3.80;;
61477;SDS011;47345;52.334;10.392;2023-04-06T01:00:05;4.00;;;2.90;;
61477;SDS011;47345;52.334;10.392;2023-04-06T01:02:38;4.60;;;3.40;;
61477;SDS011;47345;52.334;10.392;2023-04-06T01:05:09;3.40;;;3.10;;
61477;SDS011;47345;52.334;10.392;2023-04-06T01:07:41;4.10;;;3.10;;
61477;SDS011;47345;52.334;10.392;2023-04-06T01:10:12;3.00;;;2.60;;
61477;SDS011;47345;52.334;10.392;2023-04-06T01:12:53;4.40;;;2.80;;
61477;SDS011;47345;52.334;10.392;2023-04-06T01:15:25;2.90;;;2.70;;
61477;SDS011;47345;52.334;10.392;2023-04-06T01:17:58;4.80;;;3.20;;
61477;SDS011;47345;52.334;10.392;2023-04-06T01:20:29;3.90;;;3.10;;
61477;SDS011;47345;52.334;10.392;2023-04-06T01:22:59;9.20;;;3.10;;
61477;SDS011;47345;52.334;10.392;2023-04-06T01:25:30;4.20;;;2.70;;
61477;SDS011;47345;52.334;10.392;2023-04-06T01:28:03;4.30;;;2.90;;
61477;SDS011;47345;52.334;10.392;2023-04-06T01:30:34;3.90;;;3.10;;
61477;SDS011;47345;52.334;10.392;2023-04-06T01:33:05;3.60;;;3.00;;
61477;SDS011;47345;52.334;10.392;2023-04-06T01:35:36;2.70;;;2.40;;
61477;SDS011;47345;52.334;10.392;2023-04-06T01:38:07;3.40;;;2.70;;
61477;SDS011;47345;52.334;10.392;2023-04-06T01:40:39;4.10;;;3.00;;
61477;SDS011;47345;52.334;10.392;2023-04-06T01:43:10;3.30;;;2.50;;
61477;SDS011;47345;52.334;10.392;2023-04-06T01:45:41;3.10;;;2.40;;
61477;SDS011;47345;52.334;10.392;2023-04-06T01:48:13;3.80;;;2.90;;
61477;SDS011;47345;52.334;10.392;2023-04-06T01:50:43;4.00;;;3.00;;
61477;SDS011;47345;52.334;10.392;2023-04-06T01:53:14;3.80;;;2.80;;
61477;SDS011;47345;52.334;10.392;2023-04-06T01:55:45;3.40;;;2.90;;
61477;SDS011;47345;52.334;10.392;2023-04-06T01:58:17;3.40;;;2.40;;
61477;SDS011;47345;52.334;10.392;2023-04-06T02:00:48;2.80;;;2.50;;
61477;SDS011;47345;52.334;10.392;2023-04-06T02:03:19;3.90;;;2.70;;
61477;SDS011;47345;52.334;10.392;2023-04-06T02:05:50;3.60;;;2.80;;
61477;SDS011;47345;52.334;10.392;2023-04-06T02:08:21;2.80;;;2.60;;
61477;SDS011;47345;52.334;10.392;2023-04-06T02:10:52;4.20;;;2.80;;
61477;SDS011;47345;52.334;10.392;2023-04-06T02:13:22;3.40;;;2.70;;
61477;SDS011;47345;52.334;10.392;2023-04-06T02:15:53;2.70;;;2.40;;
61477;SDS011;47345;52.334;10.392;2023-04-06T02:18:24;2.50;;;2.30;;
61477;SDS011;47345;52.334;10.392;2023-04-06T02:20:55;2.90;;;2.60;;
61477;SDS011;47345;52.334;10.392;2023-04-06T02:23:26;3.80;;;2.80;;
61477;SDS011;47345;52.334;10.392;2023-04-06T02:25:57;3.50;;;2.70;;
61477;SDS011;47345;52.334;10.392;2023-04-06T02:28:28;4.40;;;2.80;;
61477;SDS011;47345;52.334;10.392;2023-04-06T02:30:58;3.60;;;2.70;;
61477;SDS011;47345;52.334;10.392;2023-04-06T02:33:29;3.00;;;2.40;;
61477;SDS011;47345;52.334;10.392;2023-04-06T02:35:59;2.70;;;2.40;;
61477;SDS011;47345;52.334;10.392;2023-04-06T02:38:30;2.80;;;2.60;;
61477;SDS011;47345;52.334;10.392;2023-04-06T02:41:01;4.30;;;3.10;;
61477;SDS011;47345;52.334;10.392;2023-04-06T02:43:32;3.00;;;2.60;;
61477;SDS011;47345;52.334;10.392;2023-04-06T02:46:02;3.00;;;2.60;;
61477;SDS011;47345;52.334;10.392;2023-04-06T02:48:33;3.20;;;2.80;;
61477;SDS011;47345;52.334;10.392;2023-04-06T02:51:04;3.80;;;2.80;;
61477;SDS011;47345;52.334;10.392;2023-04-06T02:53:35;2.60;;;2.30;;
61477;SDS011;47345;52.334;10.392;2023-04-06T02:56:06;2.40;;;2.20;;
61477;SDS011;47345;52.334;10.392;2023-04-06T02:58:37;2.80;;;2.60;;
61477;SDS011;47345;52.334;10.392;2023-04-06T03:01:08;2.80;;;2.60;;
61477;SDS011;47345;52.334;10.392;2023-04-06T03:03:38;2.70;;;2.50;;
61477;SDS011;47345;52.334;10.392;2023-04-06T03:06:09;3.00;;;2.50;;
61477;SDS011;47345;52.334;10.392;2023-04-06T03:08:41;3.20;;;2.80;;
61477;SDS011;47345;52.334;10.392;2023-04-06T03:11:12;2.90;;;2.50;;
61477;SDS011;47345;52.334;10.392;2023-04-06T03:13:44;3.40;;;2.80;;
61477;SDS011;47345;52.334;10.392;2023-04-06T03:16:15;3.80;;;2.90;;
61477;SDS011;47345;52.334;10.392;2023-04-06T03:18:47;3.20;;;2.70;;
61477;SDS011;47345;52.334;10.392;2023-04-06T03:21:18;4.10;;;2.80;;
61477;SDS011;47345;52.334;10.392;2023-04-06T03:23:49;2.70;;;2.40;;
61477;SDS011;47345;52.334;10.392;2023-04-06T03:26:20;2.90;;;2.70;;
61477;SDS011;47345;52.334;10.392;2023-04-06T03:28:51;3.10;;;2.80;;
61477;SDS011;47345;52.334;10.392;2023-04-06T03:31:21;3.10;;;2.80;;
61477;SDS011;47345;52.334;10.392;2023-04-06T03:33:52;3.00;;;2.70;;
61477;SDS011;47345;52.334;10.392;2023-04-06T03:36:23;2.50;;;2.30;;
61477;SDS011;47345;52.334;10.392;2023-04-06T03:38:54;2.80;;;2.50;;
61477;SDS011;47345;52.334;10.392;2023-04-06T03:41:25;2.80;;;2.50;;
61477;SDS011;47345;52.334;10.392;2023-04-06T03:43:56;2.70;;;2.50;;
61477;SDS011;47345;52.334;10.392;2023-04-06T03:46:26;2.70;;;2.20;;
61477;SDS011;47345;52.334;10.392;2023-04-06T03:48:57;3.30;;;3.00;;
61477;SDS011;47345;52.334;10.392;2023-04-06T03:51:28;2.90;;;2.50;;
61477;SDS011;47345;52.334;10.392;2023-04-06T03:53:59;2.80;;;2.50;;
61477;SDS011;47345;52.334;10.392;2023-04-06T03:56:32;3.40;;;2.60;;
61477;SDS011;47345;52.334;10.392;2023-04-06T03:59:04;2.70;;;2.50;;
61477;SDS011;47345;52.334;10.392;2023-04-06T04:01:35;2.80;;;2.60;;
61477;SDS011;47345;52.334;10.392;2023-04-06T04:04:07;4.40;;;3.70;;
61477;SDS011;47345;52.334;10.392;2023-04-06T04:06:37;3.90;;;3.20;;
61477;SDS011;47345;52.334;10.392;2023-04-06T04:09:08;2.70;;;2.50;;
61477;SDS011;47345;52.334;10.392;2023-04-06T04:11:39;4.20;;;2.90;;
61477;SDS011;47345;52.334;10.392;2023-04-06T04:14:11;3.10;;;2.80;;
61477;SDS011;47345;52.334;10.392;2023-04-06T04:16:42;5.00;;;3.40;;
61477;SDS011;47345;52.334;10.392;2023-04-06T04:19:13;3.30;;;3.00;;
61477;SDS011;47345;52.334;10.392;2023-04-06T04:21:44;3.60;;;3.00;;
61477;SDS011;47345;52.334;10.392;2023-04-06T04:24:15;3.10;;;2.80;;
61477;SDS011;47345;52.334;10.392;2023-04-06T04:26:46;4.10;;;3.60;;
61477;SDS011;47345;52.334;10.392;2023-04-06T04:29:17;3.30;;;3.00;;
61477;SDS011;47345;52.334;10.392;2023-04-06T04:31:50;4.20;;;3.40;;
61477;SDS011;47345;52.334;10.392;2023-04-06T04:34:20;3.20;;;2.80;;
61477;SDS011;47345;52.334;10.392;2023-04-06T04:36:52;3.10;;;2.80;;
61477;SDS011;47345;52.334;10.392;2023-04-06T04:39:23;3.10;;;2.80;;
61477;SDS011;47345;52.334;10.392;2023-04-06T04:41:54;4.20;;;3.20;;
61477;SDS011;47345;52.334;10.392;2023-04-06T04:44:25;3.00;;;2.70;;
61477;SDS011;47345;52.334;10.392;2023-04-06T04:46:56;5.80;;;4.30;;
61477;SDS011;47345;52.334;10.392;2023-04-06T04:49:26;5.60;;;4.10;;
61477;SDS011;47345;52.334;10.392;2023-04-06T04:51:57;6.50;;;4.00;;
61477;SDS011;47345;52.334;10.392;2023-04-06T04:54:28;6.50;;;4.50;;
61477;SDS011;47345;52.334;10.392;2023-04-06T04:56:59;4.90;;;3.80;;
61477;SDS011;47345;52.334;10.392;2023-04-06T04:59:30;4.40;;;3.60;;
61477;SDS011;47345;52.334;10.392;2023-04-06T05:02:01;5.20;;;4.00;;
61477;SDS011;47345;52.334;10.392;2023-04-06T05:04:32;3.70;;;3.30;;
61477;SDS011;47345;52.334;10.392;2023-04-06T05:07:03;4.20;;;3.30;;
61477;SDS011;47345;52.334;10.392;2023-04-06T05:09:35;4.10;;;3.40;;
61477;SDS011;47345;52.334;10.392;2023-04-06T05:12:07;3.70;;;3.30;;
61477;SDS011;47345;52.334;10.392;2023-04-06T05:14:37;7.40;;;3.40;;
61477;SDS011;47345;52.334;10.392;2023-04-06T05:17:09;5.30;;;3.50;;
61477;SDS011;47345;52.334;10.392;2023-04-06T05:19:40;4.10;;;3.10;;
61477;SDS011;47345;52.334;10.392;2023-04-06T05:22:11;4.10;;;3.30;;
61477;SDS011;47345;52.334;10.392;2023-04-06T05:24:43;3.30;;;3.00;;
61477;SDS011;47345;52.334;10.392;2023-04-06T05:27:14;5.80;;;3.90;;
61477;SDS011;47345;52.334;10.392;2023-04-06T05:29:45;4.70;;;3.60;;
61477;SDS011;47345;52.334;10.392;2023-04-06T05:32:16;3.50;;;3.00;;
61477;SDS011;47345;52.334;10.392;2023-04-06T05:34:50;3.80;;;3.20;;
61477;SDS011;47345;52.334;10.392;2023-04-06T05:37:20;3.30;;;2.90;;
61477;SDS011;47345;52.334;10.392;2023-04-06T05:39:51;3.50;;;3.20;;
61477;SDS011;47345;52.334;10.392;2023-04-06T05:42:23;3.10;;;2.90;;
61477;SDS011;47345;52.334;10.392;2023-04-06T05:44:55;5.50;;;4.30;;
61477;SDS011;47345;52.334;10.392;2023-04-06T05:47:26;5.20;;;3.30;;
61477;SDS011;47345;52.334;10.392;2023-04-06T05:49:57;4.50;;;3.30;;
61477;SDS011;47345;52.334;10.392;2023-04-06T05:52:28;4.50;;;3.40;;
61477;SDS011;47345;52.334;10.392;2023-04-06T05:54:58;3.80;;;3.30;;
61477;SDS011;47345;52.334;10.392;2023-04-06T05:57:29;3.10;;;2.80;;
61477;SDS011;47345;52.334;10.392;2023-04-06T06:00:00;4.90;;;3.90;;
61477;SDS011;47345;52.334;10.392;2023-04-06T06:02:31;4.60;;;3.70;;
61477;SDS011;47345;52.334;10.392;2023-04-06T06:05:02;3.90;;;3.20;;
61477;SDS011;47345;52.334;10.392;2023-04-06T06:07:34;3.60;;;3.20;;
61477;SDS011;47345;52.334;10.392;2023-04-06T06:10:05;5.80;;;4.00;;
61477;SDS011;47345;52.334;10.392;2023-04-06T06:12:37;5.10;;;4.20;;
61477;SDS011;47345;52.334;10.392;2023-04-06T06:15:09;4.70;;;3.80;;
61477;SDS011;47345;52.334;10.392;2023-04-06T06:17:40;6.90;;;4.90;;
61477;SDS011;47345;52.334;10.392;2023-04-06T06:20:12;6.10;;;4.30;;
61477;SDS011;47345;52.334;10.392;2023-04-06T06:22:43;6.60;;;5.00;;
61477;SDS011;47345;52.334;10.392;2023-04-06T06:25:13;6.00;;;4.30;;
61477;SDS011;47345;52.334;10.392;2023-04-06T06:27:44;4.60;;;3.90;;
61477;SDS011;47345;52.334;10.392;2023-04-06T06:30:15;6.10;;;4.60;;
61477;SDS011;47345;52.334;10.392;2023-04-06T06:32:50;6.20;;;4.90;;
61477;SDS011;47345;52.334;10.392;2023-04-06T06:35:21;6.30;;;4.30;;
61477;SDS011;47345;52.334;10.392;2023-04-06T06:37:52;7.30;;;5.10;;
61477;SDS011;47345;52.334;10.392;2023-04-06T06:40:23;6.90;;;5.40;;
61477;SDS011;47345;52.334;10.392;2023-04-06T06:42:54;8.10;;;5.90;;
61477;SDS011;47345;52.334;10.392;2023-04-06T06:45:25;8.10;;;5.60;;
61477;SDS011;47345;52.334;10.392;2023-04-06T06:47:57;7.90;;;5.50;;
61477;SDS011;47345;52.334;10.392;2023-04-06T06:50:28;10.30;;;6.10;;
61477;SDS011;47345;52.334;10.392;2023-04-06T06:52:59;7.00;;;5.50;;
61477;SDS011;47345;52.334;10.392;2023-04-06T06:55:30;14.20;;;5.40;;
61477;SDS011;47345;52.334;10.392;2023-04-06T06:58:01;8.40;;;5.90;;
61477;SDS011;47345;52.334;10.392;2023-04-06T07:00:32;7.30;;;5.00;;
61477;SDS011;47345;52.334;10.392;2023-04-06T07:03:02;7.20;;;4.90;;
61477;SDS011;47345;52.334;10.392;2023-04-06T07:05:35;7.70;;;5.40;;
61477;SDS011;47345;52.334;10.392;2023-04-06T07:08:08;7.40;;;5.10;;
61477;SDS011;47345;52.334;10.392;2023-04-06T07:10:38;7.50;;;5.60;;
61477;SDS011;47345;52.334;10.392;2023-04-06T07:13:09;10.20;;;6.30;;
61477;SDS011;47345;52.334;10.392;2023-04-06T07:15:42;8.40;;;5.40;;
61477;SDS011;47345;52.334;10.392;2023-04-06T07:18:12;6.00;;;4.40;;
61477;SDS011;47345;52.334;10.392;2023-04-06T07:20:52;9.70;;;6.10;;
61477;SDS011;47345;52.334;10.392;2023-04-06T07:23:23;8.30;;;5.50;;
61477;SDS011;47345;52.334;10.392;2023-04-06T07:25:54;6.60;;;5.00;;
61477;SDS011;47345;52.334;10.392;2023-04-06T07:31:04;8.50;;;5.80;;
61477;SDS011;47345;52.334;10.392;2023-04-06T07:33:35;9.20;;;6.20;;
61477;SDS011;47345;52.334;10.392;2023-04-06T07:36:26;8.00;;;5.10;;
61477;SDS011;47345;52.334;10.392;2023-04-06T07:38:57;6.20;;;5.10;;
61477;SDS011;47345;52.334;10.392;2023-04-06T07:41:28;8.10;;;5.20;;
61477;SDS011;47345;52.334;10.392;2023-04-06T07:43:59;7.10;;;4.80;;
61477;SDS011;47345;52.334;10.392;2023-04-06T07:46:29;9.90;;;5.40;;
61477;SDS011;47345;52.334;10.392;2023-04-06T07:49:00;8.50;;;5.40;;
61477;SDS011;47345;52.334;10.392;2023-04-06T07:51:32;7.60;;;4.70;;
61477;SDS011;47345;52.334;10.392;2023-04-06T07:54:04;11.30;;;5.60;;
61477;SDS011;47345;52.334;10.392;2023-04-06T07:56:36;7.60;;;5.00;;
61477;SDS011;47345;52.334;10.392;2023-04-06T07:59:07;6.20;;;4.70;;
61477;SDS011;47345;52.334;10.392;2023-04-06T08:01:39;7.20;;;4.30;;
61477;SDS011;47345;52.334;10.392;2023-04-06T08:04:10;6.60;;;4.20;;
61477;SDS011;47345;52.334;10.392;2023-04-06T08:06:43;8.70;;;4.90;;
61477;SDS011;47345;52.334;10.392;2023-04-06T08:09:16;7.40;;;5.00;;
61477;SDS011;47345;52.334;10.392;2023-04-06T08:15:27;6.20;;;4.00;;
61477;SDS011;47345;52.334;10.392;2023-04-06T08:17:59;10.50;;;5.50;;
61477;SDS011;47345;52.334;10.392;2023-04-06T08:20:33;6.80;;;4.40;;
61477;SDS011;47345;52.334;10.392;2023-04-06T08:23:06;6.80;;;4.20;;
61477;SDS011;47345;52.334;10.392;2023-04-06T08:25:39;8.70;;;4.90;;
61477;SDS011;47345;52.334;10.392;2023-04-06T08:28:13;6.80;;;4.40;;
61477;SDS011;47345;52.334;10.392;2023-04-06T08:30:49;5.80;;;3.90;;
61477;SDS011;47345;52.334;10.392;2023-04-06T08:33:21;5.70;;;3.90;;
61477;SDS011;47345;52.334;10.392;2023-04-06T08:35:53;5.80;;;4.20;;
61477;SDS011;47345;52.334;10.392;2023-04-06T08:38:26;7.70;;;4.50;;
61477;SDS011;47345;52.334;10.392;2023-04-06T08:40:59;8.00;;;4.90;;
61477;SDS011;47345;52.334;10.392;2023-04-06T08:43:41;8.30;;;4.60;;
61477;SDS011;47345;52.334;10.392;2023-04-06T08:46:17;6.00;;;4.20;;
61477;SDS011;47345;52.334;10.392;2023-04-06T08:48:51;8.00;;;4.70;;
61477;SDS011;47345;52.334;10.392;2023-04-06T08:51:23;10.00;;;5.00;;
61477;SDS011;47345;52.334;10.392;2023-04-06T08:53:56;6.50;;;4.70;;
61477;SDS011;47345;52.334;10.392;2023-04-06T08:56:30;6.80;;;4.60;;
61477;SDS011;47345;52.334;10.392;2023-04-06T08:59:04;8.70;;;4.80;;
61477;SDS011;47345;52.334;10.392;2023-04-06T09:01:38;8.30;;;4.60;;
61477;SDS011;47345;52.334;10.392;2023-04-06T09:04:11;7.40;;;4.60;;
61477;SDS011;47345;52.334;10.392;2023-04-06T09:06:46;7.70;;;5.10;;
61477;SDS011;47345;52.334;10.392;2023-04-06T09:09:20;7.00;;;4.60;;
61477;SDS011;47345;52.334;10.392;2023-04-06T09:11:53;7.90;;;5.00;;
61477;SDS011;47345;52.334;10.392;2023-04-06T09:14:37;7.40;;;4.60;;
61477;SDS011;47345;52.334;10.392;2023-04-06T09:17:19;8.00;;;4.70;;
61477;SDS011;47345;52.334;10.392;2023-04-06T09:19:52;7.60;;;4.90;;
61477;SDS011;47345;52.334;10.392;2023-04-06T09:22:34;8.30;;;4.90;;
61477;SDS011;47345;52.334;10.392;2023-04-06T09:25:17;7.10;;;4.60;;
61477;SDS011;47345;52.334;10.392;2023-04-06T09:27:59;8.80;;;4.60;;
61477;SDS011;47345;52.334;10.392;2023-04-06T09:30:33;7.30;;;4.70;;
61477;SDS011;47345;52.334;10.392;2023-04-06T09:33:07;6.50;;;4.30;;
61477;SDS011;47345;52.334;10.392;2023-04-06T09:35:48;9.10;;;4.60;;
61477;SDS011;47345;52.334;10.392;2023-04-06T09:38:22;9.50;;;4.80;;
61477;SDS011;47345;52.334;10.392;2023-04-06T09:40:55;7.10;;;4.50;;
61477;SDS011;47345;52.334;10.392;2023-04-06T09:43:29;6.50;;;4.40;;
61477;SDS011;47345;52.334;10.392;2023-04-06T09:46:02;7.70;;;4.50;;
61477;SDS011;47345;52.334;10.392;2023-04-06T09:48:36;9.00;;;5.10;;
61477;SDS011;47345;52.334;10.392;2023-04-06T09:51:10;7.50;;;4.80;;
61477;SDS011;47345;52.334;10.392;2023-04-06T09:53:46;7.90;;;4.70;;
61477;SDS011;47345;52.334;10.392;2023-04-06T09:56:28;7.90;;;5.00;;
61477;SDS011;47345;52.334;10.392;2023-04-06T09:59:13;8.20;;;5.10;;
61477;SDS011;47345;52.334;10.392;2023-04-06T10:01:51;8.20;;;5.00;;
61477;SDS011;47345;52.334;10.392;2023-04-06T10:04:30;7.80;;;4.50;;
61477;SDS011;47345;52.334;10.392;2023-04-06T10:07:10;7.00;;;4.40;;
61477;SDS011;47345;52.334;10.392;2023-04-06T10:09:44;8.00;;;4.90;;
61477;SDS011;47345;52.334;10.392;2023-04-06T10:12:18;8.50;;;4.60;;
61477;SDS011;47345;52.334;10.392;2023-04-06T10:14:51;7.70;;;4.40;;
61477;SDS011;47345;52.334;10.392;2023-04-06T10:17:24;8.00;;;5.00;;
61477;SDS011;47345;52.334;10.392;2023-04-06T10:19:59;7.90;;;4.60;;
61477;SDS011;47345;52.334;10.392;2023-04-06T10:22:36;9.60;;;5.40;;
61477;SDS011;47345;52.334;10.392;2023-04-06T10:25:14;9.80;;;4.60;;
61477;SDS011;47345;52.334;10.392;2023-04-06T10:27:48;5.80;;;3.90;;
61477;SDS011;47345;52.334;10.392;2023-04-06T10:30:31;10.40;;;5.20;;
61477;SDS011;47345;52.334;10.392;2023-04-06T10:33:14;6.90;;;4.50;;
61477;SDS011;47345;52.334;10.392;2023-04-06T10:35:48;8.00;;;4.90;;
61477;SDS011;47345;52.334;10.392;2023-04-06T10:38:20;6.60;;;4.60;;
61477;SDS011;47345;52.334;10.392;2023-04-06T10:41:07;8.10;;;4.70;;
61477;SDS011;47345;52.334;10.392;2023-04-06T10:43:40;7.20;;;4.20;;
61477;SDS011;47345;52.334;10.392;2023-04-06T10:46:15;9.20;;;4.60;;
61477;SDS011;47345;52.334;10.392;2023-04-06T10:48:58;10.20;;;5.50;;
61477;SDS011;47345;52.334;10.392;2023-04-06T10:51:42;8.10;;;4.20;;
61477;SDS011;47345;52.334;10.392;2023-04-06T10:54:14;8.20;;;4.90;;
61477;SDS011;47345;52.334;10.392;2023-04-06T10:56:48;9.40;;;4.50;;
61477;SDS011;47345;52.334;10.392;2023-04-06T10:59:20;7.70;;;4.70;;
61477;SDS011;47345;52.334;10.392;2023-04-06T11:01:53;7.70;;;4.50;;
61477;SDS011;47345;52.334;10.392;2023-04-06T11:04:25;6.80;;;4.10;;
61477;SDS011;47345;52.334;10.392;2023-04-06T11:06:57;8.10;;;4.90;;
61477;SDS011;47345;52.334;10.392;2023-04-06T11:09:29;8.20;;;5.20;;
61477;SDS011;47345;52.334;10.392;2023-04-06T11:12:04;6.20;;;4.30;;
61477;SDS011;47345;52.334;10.392;2023-04-06T11:14:37;7.30;;;4.50;;
61477;SDS011;47345;52.334;10.392;2023-04-06T11:17:10;7.80;;;4.70;;
61477;SDS011;47345;52.334;10.392;2023-04-06T11:19:42;8.80;;;5.20;;
61477;SDS011;47345;52.334;10.392;2023-04-06T11:22:14;6.90;;;4.50;;
61477;SDS011;47345;52.334;10.392;2023-04-06T11:24:46;8.30;;;5.30;;
61477;SDS011;47345;52.334;10.392;2023-04-06T11:27:19;8.10;;;4.70;;
61477;SDS011;47345;52.334;10.392;2023-04-06T11:29:53;8.30;;;4.80;;
61477;SDS011;47345;52.334;10.392;2023-04-06T11:32:27;8.30;;;5.20;;
61477;SDS011;47345;52.334;10.392;2023-04-06T11:35:00;9.70;;;5.00;;
61477;SDS011;47345;52.334;10.392;2023-04-06T11:37:32;8.20;;;4.90;;
61477;SDS011;47345;52.334;10.392;2023-04-06T11:40:07;8.50;;;5.20;;
61477;SDS011;47345;52.334;10.392;2023-04-06T11:42:43;6.60;;;4.80;;
61477;SDS011;47345;52.334;10.392;2023-04-06T11:45:24;7.90;;;4.90;;
61477;SDS011;47345;52.334;10.392;2023-04-06T11:47:58;7.80;;;4.80;;
61477;SDS011;47345;52.334;10.392;2023-04-06T11:50:33;8.50;;;4.90;;
61477;SDS011;47345;52.334;10.392;2023-04-06T11:53:05;9.00;;;4.90;;
61477;SDS011;47345;52.334;10.392;2023-04-06T11:55:38;8.20;;;4.90;;
61477;SDS011;47345;52.334;10.392;2023-04-06T11:58:12;8.70;;;4.80;;
61477;SDS011;47345;52.334;10.392;2023-04-06T12:00:44;8.60;;;5.10;;
61477;SDS011;47345;52.334;10.392;2023-04-06T12:03:15;10.80;;;4.90;;
61477;SDS011;47345;52.334;10.392;2023-04-06T12:05:46;6.30;;;4.60;;
61477;SDS011;47345;52.334;10.392;2023-04-06T12:08:17;7.80;;;4.90;;
61477;SDS011;47345;52.334;10.392;2023-04-06T12:10:47;7.90;;;4.50;;
61477;SDS011;47345;52.334;10.392;2023-04-06T12:13:18;6.60;;;4.50;;
61477;SDS011;47345;52.334;10.392;2023-04-06T12:15:48;7.30;;;5.30;;
61477;SDS011;47345;52.334;10.392;2023-04-06T12:18:19;7.90;;;4.70;;
61477;SDS011;47345;52.334;10.392;2023-04-06T12:20:50;8.90;;;5.30;;
61477;SDS011;47345;52.334;10.392;2023-04-06T12:23:21;10.10;;;5.30;;
61477;SDS011;47345;52.334;10.392;2023-04-06T12:25:52;8.20;;;5.80;;
61477;SDS011;47345;52.334;10.392;2023-04-06T12:28:23;7.80;;;4.90;;
61477;SDS011;47345;52.334;10.392;2023-04-06T12:30:54;13.70;;;6.00;;
61477;SDS011;47345;52.334;10.392;2023-04-06T12:33:25;8.40;;;4.80;;
61477;SDS011;47345;52.334;10.392;2023-04-06T12:35:56;6.10;;;4.50;;
61477;SDS011;47345;52.334;10.392;2023-04-06T12:38:27;6.70;;;4.60;;
61477;SDS011;47345;52.334;10.392;2023-04-06T12:40:58;8.10;;;4.50;;
61477;SDS011;47345;52.334;10.392;2023-04-06T12:43:28;6.40;;;4.50;;
61477;SDS011;47345;52.334;10.392;2023-04-06T12:45:59;5.30;;;3.90;;
61477;SDS011;47345;52.334;10.392;2023-04-06T12:48:30;8.20;;;4.80;;
61477;SDS011;47345;52.334;10.392;2023-04-06T12:51:01;7.60;;;5.20;;
61477;SDS011;47345;52.334;10.392;2023-04-06T12:53:33;6.80;;;4.10;;
61477;SDS011;47345;52.334;10.392;2023-04-06T12:56:10;6.40;;;4.10;;
61477;SDS011;47345;52.334;10.392;2023-04-06T12:58:43;6.50;;;4.40;;
61477;SDS011;47345;52.334;10.392;2023-04-06T13:01:14;7.10;;;4.20;;
61477;SDS011;47345;52.334;10.392;2023-04-06T13:03:45;7.30;;;4.70;;
61477;SDS011;47345;52.334;10.392;2023-04-06T13:06:17;10.10;;;5.40;;
61477;SDS011;47345;52.334;10.392;2023-04-06T13:08:48;6.50;;;4.50;;
61477;SDS011;47345;52.334;10.392;2023-04-06T13:11:20;7.80;;;5.00;;
61477;SDS011;47345;52.334;10.392;2023-04-06T13:13:55;7.80;;;4.50;;
61477;SDS011;47345;52.334;10.392;2023-04-06T13:16:27;8.50;;;5.00;;
61477;SDS011;47345;52.334;10.392;2023-04-06T13:19:00;6.20;;;4.50;;
61477;SDS011;47345;52.334;10.392;2023-04-06T13:21:31;8.10;;;4.90;;
61477;SDS011;47345;52.334;10.392;2023-04-06T13:24:02;5.20;;;4.20;;
61477;SDS011;47345;52.334;10.392;2023-04-06T13:26:34;7.20;;;4.20;;
61477;SDS011;47345;52.334;10.392;2023-04-06T13:29:06;5.80;;;4.30;;
61477;SDS011;47345;52.334;10.392;2023-04-06T13:31:38;7.30;;;4.50;;
61477;SDS011;47345;52.334;10.392;2023-04-06T13:34:11;7.90;;;4.70;;
61477;SDS011;47345;52.334;10.392;2023-04-06T13:36:44;5.70;;;4.00;;
61477;SDS011;47345;52.334;10.392;2023-04-06T13:39:15;6.50;;;4.00;;
61477;SDS011;47345;52.334;10.392;2023-04-06T13:41:48;7.00;;;4.70;;
61477;SDS011;47345;52.334;10.392;2023-04-06T13:44:19;9.80;;;4.40;;
61477;SDS011;47345;52.334;10.392;2023-04-06T13:46:51;6.90;;;4.10;;
61477;SDS011;47345;52.334;10.392;2023-04-06T13:49:23;8.20;;;4.80;;
61477;SDS011;47345;52.334;10.392;2023-04-06T13:51:54;9.00;;;4.70;;
61477;SDS011;47345;52.334;10.392;2023-04-06T13:54:27;6.80;;;4.40;;
61477;SDS011;47345;52.334;10.392;2023-04-06T13:56:58;6.30;;;4.10;;
61477;SDS011;47345;52.334;10.392;2023-04-06T13:59:33;6.10;;;4.40;;
61477;SDS011;47345;52.334;10.392;2023-04-06T14:02:05;5.60;;;4.30;;
61477;SDS011;47345;52.334;10.392;2023-04-06T14:04:39;7.90;;;4.40;;
61477;SDS011;47345;52.334;10.392;2023-04-06T14:07:13;6.80;;;4.30;;
61477;SDS011;47345;52.334;10.392;2023-04-06T14:09:44;6.80;;;4.40;;
61477;SDS011;47345;52.334;10.392;2023-04-06T14:12:15;8.20;;;4.10;;
61477;SDS011;47345;52.334;10.392;2023-04-06T14:14:46;6.80;;;4.10;;
61477;SDS011;47345;52.334;10.392;2023-04-06T14:17:17;6.70;;;4.70;;
61477;SDS011;47345;52.334;10.392;2023-04-06T14:19:50;6.60;;;4.00;;
61477;SDS011;47345;52.334;10.392;2023-04-06T14:22:21;6.20;;;4.20;;
61477;SDS011;47345;52.334;10.392;2023-04-06T14:24:52;5.60;;;3.60;;
61477;SDS011;47345;52.334;10.392;2023-04-06T14:27:24;8.60;;;4.30;;
61477;SDS011;47345;52.334;10.392;2023-04-06T14:29:55;6.50;;;4.20;;
61477;SDS011;47345;52.334;10.392;2023-04-06T14:32:26;6.40;;;3.90;;
61477;SDS011;47345;52.334;10.392;2023-04-06T14:34:57;7.30;;;3.90;;
61477;SDS011;47345;52.334;10.392;2023-04-06T14:37:30;6.70;;;4.30;;
61477;SDS011;47345;52.334;10.392;2023-04-06T14:40:01;8.30;;;4.20;;
61477;SDS011;47345;52.334;10.392;2023-04-06T14:42:32;10.30;;;5.00;;
61477;SDS011;47345;52.334;10.392;2023-04-06T14:45:04;6.70;;;4.40;;
61477;SDS011;47345;52.334;10.392;2023-04-06T14:47:36;7.00;;;4.40;;
61477;SDS011;47345;52.334;10.392;2023-04-06T14:50:09;6.20;;;4.20;;
61477;SDS011;47345;52.334;10.392;2023-04-06T14:52:40;6.30;;;4.30;;
61477;SDS011;47345;52.334;10.392;2023-04-06T14:55:14;5.90;;;4.30;;
61477;SDS011;47345;52.334;10.392;2023-04-06T14:57:45;7.30;;;4.30;;
61477;SDS011;47345;52.334;10.392;2023-04-06T15:00:17;5.30;;;4.10;;
61477;SDS011;47345;52.334;10.392;2023-04-06T15:02:49;7.20;;;4.50;;
61477;SDS011;47345;52.334;10.392;2023-04-06T15:05:21;8.30;;;4.30;;
61477;SDS011;47345;52.334;10.392;2023-04-06T15:07:53;10.00;;;4.30;;
61477;SDS011;47345;52.334;10.392;2023-04-06T15:10:24;6.30;;;4.00;;